Wootton, United Kingdom
Current Conditions -  °F | °C
As of 8:50 AM on Friday 21 Nov 2014 (Local Time) from EGTC Reporting Station
Haze Haze  
Wind Chill: 38°   Ceiling: Unl
Heat Index: 43°   Visibility: 1.1mi
Dew Point: 43°   Wind: 8mph
Humidity: 100%   Direction: 80°E
Pressure: 30.09"   Gusts: NA
Location:  52.1°N, 0.53°W
Report Text: EGTC 210850Z 08007KT 1900 BR FEW012 06/06 Q1019
Loading
Personal Weather Stations






























Interactive Weather Map New forecast layout! Learn more

10-Day Weather Forecast

Advertisements
Track Severe Weather on mobile